sensor_id;sensor_type;location;lat;lon;timestamp;P1;durP1;ratioP1;P2;durP2;ratioP2
56770;SDS011;42641;59.794;17.616;2023-04-03T00:00:34;2.30;;;1.00;;
56770;SDS011;42641;59.794;17.616;2023-04-03T00:03:00;6.33;;;1.17;;
56770;SDS011;42641;59.794;17.616;2023-04-03T00:05:27;3.60;;;1.30;;
56770;SDS011;42641;59.794;17.616;2023-04-03T00:07:53;6.97;;;1.73;;
56770;SDS011;42641;59.794;17.616;2023-04-03T00:10:20;6.60;;;1.30;;
56770;SDS011;42641;59.794;17.616;2023-04-03T00:12:47;4.07;;;1.50;;
56770;SDS011;42641;59.794;17.616;2023-04-03T00:15:14;4.90;;;1.27;;
56770;SDS011;42641;59.794;17.616;2023-04-03T00:17:40;3.13;;;1.50;;
56770;SDS011;42641;59.794;17.616;2023-04-03T00:20:07;4.13;;;1.50;;
56770;SDS011;42641;59.794;17.616;2023-04-03T00:22:34;4.80;;;1.70;;
56770;SDS011;42641;59.794;17.616;2023-04-03T00:25:01;3.77;;;1.63;;
56770;SDS011;42641;59.794;17.616;2023-04-03T00:27:27;3.53;;;1.27;;
56770;SDS011;42641;59.794;17.616;2023-04-03T00:29:53;5.43;;;1.40;;
56770;SDS011;42641;59.794;17.616;2023-04-03T00:32:20;3.73;;;1.43;;
56770;SDS011;42641;59.794;17.616;2023-04-03T00:34:46;7.43;;;1.47;;
56770;SDS011;42641;59.794;17.616;2023-04-03T00:37:13;3.73;;;1.43;;
56770;SDS011;42641;59.794;17.616;2023-04-03T00:39:39;4.43;;;1.20;;
56770;SDS011;42641;59.794;17.616;2023-04-03T00:42:06;4.50;;;1.20;;
56770;SDS011;42641;59.794;17.616;2023-04-03T00:46:59;6.43;;;1.40;;
56770;SDS011;42641;59.794;17.616;2023-04-03T00:49:27;3.87;;;1.20;;
56770;SDS011;42641;59.794;17.616;2023-04-03T00:51:54;5.07;;;1.47;;
56770;SDS011;42641;59.794;17.616;2023-04-03T00:54:22;3.87;;;1.77;;
56770;SDS011;42641;59.794;17.616;2023-04-03T00:56:50;2.70;;;1.50;;
56770;SDS011;42641;59.794;17.616;2023-04-03T00:59:19;4.50;;;1.63;;
56770;SDS011;42641;59.794;17.616;2023-04-03T01:01:51;2.13;;;1.60;;
56770;SDS011;42641;59.794;17.616;2023-04-03T01:07:12;2.00;;;1.10;;
56770;SDS011;42641;59.794;17.616;2023-04-03T01:09:52;5.90;;;1.37;;
56770;SDS011;42641;59.794;17.616;2023-04-03T01:12:27;3.13;;;1.57;;
56770;SDS011;42641;59.794;17.616;2023-04-03T01:15:00;4.87;;;1.50;;
56770;SDS011;42641;59.794;17.616;2023-04-03T01:22:38;3.73;;;1.40;;
56770;SDS011;42641;59.794;17.616;2023-04-03T01:25:21;4.27;;;1.53;;
56770;SDS011;42641;59.794;17.616;2023-04-03T01:27:50;2.77;;;1.57;;
56770;SDS011;42641;59.794;17.616;2023-04-03T01:30:27;5.60;;;1.33;;
56770;SDS011;42641;59.794;17.616;2023-04-03T01:32:58;4.23;;;1.37;;
56770;SDS011;42641;59.794;17.616;2023-04-03T01:35:25;4.67;;;1.70;;
56770;SDS011;42641;59.794;17.616;2023-04-03T01:37:52;3.73;;;1.60;;
56770;SDS011;42641;59.794;17.616;2023-04-03T01:40:18;3.50;;;1.30;;
56770;SDS011;42641;59.794;17.616;2023-04-03T01:42:46;4.17;;;1.27;;
56770;SDS011;42641;59.794;17.616;2023-04-03T01:45:12;5.00;;;2.00;;
56770;SDS011;42641;59.794;17.616;2023-04-03T01:47:39;2.90;;;1.30;;
56770;SDS011;42641;59.794;17.616;2023-04-03T01:50:05;4.30;;;1.60;;
56770;SDS011;42641;59.794;17.616;2023-04-03T01:52:34;11.47;;;1.43;;
56770;SDS011;42641;59.794;17.616;2023-04-03T01:55:00;4.60;;;1.40;;
56770;SDS011;42641;59.794;17.616;2023-04-03T01:57:27;5.50;;;1.37;;
56770;SDS011;42641;59.794;17.616;2023-04-03T01:59:54;4.03;;;1.30;;
56770;SDS011;42641;59.794;17.616;2023-04-03T02:02:20;3.73;;;2.00;;
56770;SDS011;42641;59.794;17.616;2023-04-03T02:04:46;2.17;;;1.23;;
56770;SDS011;42641;59.794;17.616;2023-04-03T02:07:13;3.27;;;1.40;;
56770;SDS011;42641;59.794;17.616;2023-04-03T02:09:39;2.50;;;1.57;;
56770;SDS011;42641;59.794;17.616;2023-04-03T02:12:06;5.23;;;1.33;;
56770;SDS011;42641;59.794;17.616;2023-04-03T02:14:32;7.97;;;2.00;;
56770;SDS011;42641;59.794;17.616;2023-04-03T02:17:00;4.63;;;1.30;;
56770;SDS011;42641;59.794;17.616;2023-04-03T02:19:30;4.87;;;1.10;;
56770;SDS011;42641;59.794;17.616;2023-04-03T02:21:57;5.03;;;1.40;;
56770;SDS011;42641;59.794;17.616;2023-04-03T02:24:23;3.13;;;1.40;;
56770;SDS011;42641;59.794;17.616;2023-04-03T02:26:51;2.00;;;1.20;;
56770;SDS011;42641;59.794;17.616;2023-04-03T02:29:17;5.83;;;1.40;;
56770;SDS011;42641;59.794;17.616;2023-04-03T02:31:44;3.07;;;1.10;;
56770;SDS011;42641;59.794;17.616;2023-04-03T02:34:10;5.13;;;1.30;;
56770;SDS011;42641;59.794;17.616;2023-04-03T02:36:38;2.77;;;1.53;;
56770;SDS011;42641;59.794;17.616;2023-04-03T02:39:07;4.00;;;1.50;;
56770;SDS011;42641;59.794;17.616;2023-04-03T02:41:35;4.73;;;1.60;;
56770;SDS011;42641;59.794;17.616;2023-04-03T02:44:03;6.10;;;1.80;;
56770;SDS011;42641;59.794;17.616;2023-04-03T02:46:31;6.10;;;1.47;;
56770;SDS011;42641;59.794;17.616;2023-04-03T02:48:58;4.97;;;1.70;;
56770;SDS011;42641;59.794;17.616;2023-04-03T02:51:25;3.60;;;1.50;;
56770;SDS011;42641;59.794;17.616;2023-04-03T02:53:53;1.70;;;1.03;;
56770;SDS011;42641;59.794;17.616;2023-04-03T02:56:23;3.17;;;1.23;;
56770;SDS011;42641;59.794;17.616;2023-04-03T02:58:49;4.17;;;1.70;;
56770;SDS011;42641;59.794;17.616;2023-04-03T03:01:17;5.30;;;1.37;;
56770;SDS011;42641;59.794;17.616;2023-04-03T03:03:44;2.27;;;1.30;;
56770;SDS011;42641;59.794;17.616;2023-04-03T03:06:11;3.20;;;1.23;;
56770;SDS011;42641;59.794;17.616;2023-04-03T03:08:40;3.53;;;1.23;;
56770;SDS011;42641;59.794;17.616;2023-04-03T03:11:07;4.83;;;1.63;;
56770;SDS011;42641;59.794;17.616;2023-04-03T03:13:34;2.20;;;1.40;;
56770;SDS011;42641;59.794;17.616;2023-04-03T03:16:01;5.57;;;1.37;;
56770;SDS011;42641;59.794;17.616;2023-04-03T03:18:28;2.37;;;1.50;;
56770;SDS011;42641;59.794;17.616;2023-04-03T03:20:56;3.33;;;1.60;;
56770;SDS011;42641;59.794;17.616;2023-04-03T03:23:25;3.57;;;1.50;;
56770;SDS011;42641;59.794;17.616;2023-04-03T03:25:56;4.20;;;1.33;;
56770;SDS011;42641;59.794;17.616;2023-04-03T03:28:27;9.60;;;1.80;;
56770;SDS011;42641;59.794;17.616;2023-04-03T03:30:53;5.07;;;1.60;;
56770;SDS011;42641;59.794;17.616;2023-04-03T03:33:21;2.73;;;1.43;;
56770;SDS011;42641;59.794;17.616;2023-04-03T03:35:47;5.10;;;1.90;;
56770;SDS011;42641;59.794;17.616;2023-04-03T03:38:14;2.73;;;1.40;;
56770;SDS011;42641;59.794;17.616;2023-04-03T03:40:40;6.63;;;1.63;;
56770;SDS011;42641;59.794;17.616;2023-04-03T03:43:07;5.17;;;1.70;;
56770;SDS011;42641;59.794;17.616;2023-04-03T03:45:34;4.07;;;1.50;;
56770;SDS011;42641;59.794;17.616;2023-04-03T03:48:01;3.73;;;1.47;;
56770;SDS011;42641;59.794;17.616;2023-04-03T03:50:28;5.07;;;2.27;;
56770;SDS011;42641;59.794;17.616;2023-04-03T03:52:55;8.00;;;1.70;;
56770;SDS011;42641;59.794;17.616;2023-04-03T03:55:21;6.23;;;1.60;;
56770;SDS011;42641;59.794;17.616;2023-04-03T03:57:52;4.33;;;1.83;;
56770;SDS011;42641;59.794;17.616;2023-04-03T04:00:19;3.07;;;1.10;;
56770;SDS011;42641;59.794;17.616;2023-04-03T04:02:52;3.37;;;1.60;;
56770;SDS011;42641;59.794;17.616;2023-04-03T04:05:21;3.57;;;1.40;;
56770;SDS011;42641;59.794;17.616;2023-04-03T04:07:48;6.37;;;2.03;;
56770;SDS011;42641;59.794;17.616;2023-04-03T04:10:15;4.00;;;1.73;;
56770;SDS011;42641;59.794;17.616;2023-04-03T04:12:43;4.33;;;1.87;;
56770;SDS011;42641;59.794;17.616;2023-04-03T04:15:10;4.30;;;1.50;;
56770;SDS011;42641;59.794;17.616;2023-04-03T04:17:36;4.63;;;1.83;;
56770;SDS011;42641;59.794;17.616;2023-04-03T04:20:05;4.80;;;1.93;;
56770;SDS011;42641;59.794;17.616;2023-04-03T04:22:33;8.47;;;1.80;;
56770;SDS011;42641;59.794;17.616;2023-04-03T04:24:59;4.90;;;1.67;;
56770;SDS011;42641;59.794;17.616;2023-04-03T04:27:25;4.73;;;1.57;;
56770;SDS011;42641;59.794;17.616;2023-04-03T04:29:52;3.00;;;1.77;;
56770;SDS011;42641;59.794;17.616;2023-04-03T04:32:21;5.60;;;1.80;;
56770;SDS011;42641;59.794;17.616;2023-04-03T04:34:48;8.17;;;1.60;;
56770;SDS011;42641;59.794;17.616;2023-04-03T04:37:14;5.50;;;1.93;;
56770;SDS011;42641;59.794;17.616;2023-04-03T04:39:41;3.20;;;1.60;;
56770;SDS011;42641;59.794;17.616;2023-04-03T04:42:08;6.47;;;1.90;;
56770;SDS011;42641;59.794;17.616;2023-04-03T04:44:39;5.97;;;1.90;;
56770;SDS011;42641;59.794;17.616;2023-04-03T04:47:06;5.77;;;1.73;;
56770;SDS011;42641;59.794;17.616;2023-04-03T04:49:33;4.90;;;1.60;;
56770;SDS011;42641;59.794;17.616;2023-04-03T04:52:00;6.50;;;1.73;;
56770;SDS011;42641;59.794;17.616;2023-04-03T04:54:30;5.83;;;1.97;;
56770;SDS011;42641;59.794;17.616;2023-04-03T04:56:57;5.60;;;2.00;;
56770;SDS011;42641;59.794;17.616;2023-04-03T04:59:24;4.77;;;2.00;;
56770;SDS011;42641;59.794;17.616;2023-04-03T05:01:53;6.43;;;1.97;;
56770;SDS011;42641;59.794;17.616;2023-04-03T05:04:20;4.93;;;1.73;;
56770;SDS011;42641;59.794;17.616;2023-04-03T05:06:50;3.93;;;2.00;;
56770;SDS011;42641;59.794;17.616;2023-04-03T05:09:21;4.57;;;1.83;;
56770;SDS011;42641;59.794;17.616;2023-04-03T05:11:50;3.53;;;2.10;;
56770;SDS011;42641;59.794;17.616;2023-04-03T05:14:19;5.00;;;2.17;;
56770;SDS011;42641;59.794;17.616;2023-04-03T05:16:46;5.30;;;2.23;;
56770;SDS011;42641;59.794;17.616;2023-04-03T05:19:13;11.00;;;2.30;;
56770;SDS011;42641;59.794;17.616;2023-04-03T05:21:41;6.70;;;2.33;;
56770;SDS011;42641;59.794;17.616;2023-04-03T05:24:11;5.60;;;2.00;;
56770;SDS011;42641;59.794;17.616;2023-04-03T05:26:41;5.47;;;2.20;;
56770;SDS011;42641;59.794;17.616;2023-04-03T05:29:09;3.97;;;2.00;;
56770;SDS011;42641;59.794;17.616;2023-04-03T05:31:36;4.83;;;2.20;;
56770;SDS011;42641;59.794;17.616;2023-04-03T05:34:03;11.27;;;2.47;;
56770;SDS011;42641;59.794;17.616;2023-04-03T05:36:34;6.80;;;2.17;;
56770;SDS011;42641;59.794;17.616;2023-04-03T05:39:04;8.90;;;2.57;;
56770;SDS011;42641;59.794;17.616;2023-04-03T05:41:32;6.87;;;2.20;;
56770;SDS011;42641;59.794;17.616;2023-04-03T05:43:59;7.60;;;2.33;;
56770;SDS011;42641;59.794;17.616;2023-04-03T05:46:25;6.93;;;2.73;;
56770;SDS011;42641;59.794;17.616;2023-04-03T05:48:55;6.20;;;2.40;;
56770;SDS011;42641;59.794;17.616;2023-04-03T05:51:27;5.27;;;2.30;;
56770;SDS011;42641;59.794;17.616;2023-04-03T05:54:06;6.07;;;2.47;;
56770;SDS011;42641;59.794;17.616;2023-04-03T05:56:58;3.40;;;1.90;;
56770;SDS011;42641;59.794;17.616;2023-04-03T05:59:25;4.33;;;1.97;;
56770;SDS011;42641;59.794;17.616;2023-04-03T06:01:54;8.80;;;3.67;;
56770;SDS011;42641;59.794;17.616;2023-04-03T06:04:21;6.60;;;2.60;;
56770;SDS011;42641;59.794;17.616;2023-04-03T06:06:52;5.93;;;2.00;;
56770;SDS011;42641;59.794;17.616;2023-04-03T06:09:21;7.63;;;2.50;;
56770;SDS011;42641;59.794;17.616;2023-04-03T06:11:51;8.47;;;2.23;;
56770;SDS011;42641;59.794;17.616;2023-04-03T06:14:19;6.80;;;2.20;;
56770;SDS011;42641;59.794;17.616;2023-04-03T06:16:45;4.83;;;2.17;;
56770;SDS011;42641;59.794;17.616;2023-04-03T06:19:12;4.07;;;2.20;;
56770;SDS011;42641;59.794;17.616;2023-04-03T06:21:42;4.20;;;2.20;;
56770;SDS011;42641;59.794;17.616;2023-04-03T06:24:09;6.17;;;2.10;;
56770;SDS011;42641;59.794;17.616;2023-04-03T06:26:39;8.97;;;2.70;;
56770;SDS011;42641;59.794;17.616;2023-04-03T06:29:06;4.20;;;2.20;;
56770;SDS011;42641;59.794;17.616;2023-04-03T06:31:32;8.47;;;2.23;;
56770;SDS011;42641;59.794;17.616;2023-04-03T06:33:59;4.83;;;2.10;;
56770;SDS011;42641;59.794;17.616;2023-04-03T06:36:26;4.23;;;2.50;;
56770;SDS011;42641;59.794;17.616;2023-04-03T06:38:52;3.20;;;1.97;;
56770;SDS011;42641;59.794;17.616;2023-04-03T06:41:19;10.47;;;2.40;;
56770;SDS011;42641;59.794;17.616;2023-04-03T06:43:46;5.00;;;2.30;;
56770;SDS011;42641;59.794;17.616;2023-04-03T06:46:14;8.53;;;2.67;;
56770;SDS011;42641;59.794;17.616;2023-04-03T06:48:41;5.20;;;2.07;;
56770;SDS011;42641;59.794;17.616;2023-04-03T06:51:11;3.60;;;2.10;;
56770;SDS011;42641;59.794;17.616;2023-04-03T06:53:46;9.27;;;2.50;;
56770;SDS011;42641;59.794;17.616;2023-04-03T06:56:13;6.00;;;2.10;;
56770;SDS011;42641;59.794;17.616;2023-04-03T06:58:40;8.17;;;2.70;;
56770;SDS011;42641;59.794;17.616;2023-04-03T07:01:08;8.33;;;2.30;;
56770;SDS011;42641;59.794;17.616;2023-04-03T07:03:35;6.67;;;2.27;;
56770;SDS011;42641;59.794;17.616;2023-04-03T07:06:03;6.23;;;2.10;;
56770;SDS011;42641;59.794;17.616;2023-04-03T07:08:30;7.47;;;2.00;;
56770;SDS011;42641;59.794;17.616;2023-04-03T07:10:57;5.47;;;2.53;;
56770;SDS011;42641;59.794;17.616;2023-04-03T07:13:24;2.10;;;1.53;;
56770;SDS011;42641;59.794;17.616;2023-04-03T07:15:51;6.27;;;2.57;;
56770;SDS011;42641;59.794;17.616;2023-04-03T07:18:18;3.40;;;2.00;;
56770;SDS011;42641;59.794;17.616;2023-04-03T07:20:45;6.43;;;2.40;;
56770;SDS011;42641;59.794;17.616;2023-04-03T07:23:11;7.63;;;2.67;;
56770;SDS011;42641;59.794;17.616;2023-04-03T07:25:42;5.33;;;2.13;;
56770;SDS011;42641;59.794;17.616;2023-04-03T07:28:10;4.97;;;1.83;;
56770;SDS011;42641;59.794;17.616;2023-04-03T07:30:44;3.10;;;1.70;;
56770;SDS011;42641;59.794;17.616;2023-04-03T07:33:12;5.53;;;1.80;;
56770;SDS011;42641;59.794;17.616;2023-04-03T07:35:39;8.00;;;2.13;;
56770;SDS011;42641;59.794;17.616;2023-04-03T07:38:06;4.10;;;2.03;;
56770;SDS011;42641;59.794;17.616;2023-04-03T07:40:33;5.43;;;2.00;;
56770;SDS011;42641;59.794;17.616;2023-04-03T07:43:00;6.47;;;2.07;;
56770;SDS011;42641;59.794;17.616;2023-04-03T07:45:28;9.50;;;2.20;;
56770;SDS011;42641;59.794;17.616;2023-04-03T07:47:55;4.60;;;1.83;;
56770;SDS011;42641;59.794;17.616;2023-04-03T07:50:22;5.83;;;2.23;;
56770;SDS011;42641;59.794;17.616;2023-04-03T07:52:49;5.57;;;2.53;;
56770;SDS011;42641;59.794;17.616;2023-04-03T07:55:16;9.43;;;2.17;;
56770;SDS011;42641;59.794;17.616;2023-04-03T07:57:43;4.50;;;1.83;;
56770;SDS011;42641;59.794;17.616;2023-04-03T08:00:10;6.90;;;2.23;;
56770;SDS011;42641;59.794;17.616;2023-04-03T08:02:40;12.23;;;2.30;;
56770;SDS011;42641;59.794;17.616;2023-04-03T08:05:07;4.30;;;1.93;;
56770;SDS011;42641;59.794;17.616;2023-04-03T08:07:34;11.53;;;2.10;;
56770;SDS011;42641;59.794;17.616;2023-04-03T08:10:02;9.87;;;2.10;;
56770;SDS011;42641;59.794;17.616;2023-04-03T08:12:29;4.57;;;1.70;;
56770;SDS011;42641;59.794;17.616;2023-04-03T08:14:59;4.47;;;2.07;;
56770;SDS011;42641;59.794;17.616;2023-04-03T08:17:27;8.70;;;2.50;;
56770;SDS011;42641;59.794;17.616;2023-04-03T08:19:53;9.30;;;2.37;;
56770;SDS011;42641;59.794;17.616;2023-04-03T08:22:20;4.73;;;1.93;;
56770;SDS011;42641;59.794;17.616;2023-04-03T08:24:46;5.67;;;2.00;;
56770;SDS011;42641;59.794;17.616;2023-04-03T08:27:13;8.57;;;2.30;;
56770;SDS011;42641;59.794;17.616;2023-04-03T08:29:39;7.67;;;2.07;;
56770;SDS011;42641;59.794;17.616;2023-04-03T08:32:06;9.30;;;2.07;;
56770;SDS011;42641;59.794;17.616;2023-04-03T08:34:33;5.80;;;2.23;;
56770;SDS011;42641;59.794;17.616;2023-04-03T08:37:01;3.17;;;1.70;;
56770;SDS011;42641;59.794;17.616;2023-04-03T08:39:27;5.83;;;2.13;;
56770;SDS011;42641;59.794;17.616;2023-04-03T08:41:55;6.10;;;1.90;;
56770;SDS011;42641;59.794;17.616;2023-04-03T08:47:04;6.67;;;1.80;;
56770;SDS011;42641;59.794;17.616;2023-04-03T08:49:51;4.23;;;1.90;;
56770;SDS011;42641;59.794;17.616;2023-04-03T08:55:19;7.53;;;2.70;;
56770;SDS011;42641;59.794;17.616;2023-04-03T09:00:30;7.27;;;1.80;;
56770;SDS011;42641;59.794;17.616;2023-04-03T09:03:03;14.50;;;1.93;;
56770;SDS011;42641;59.794;17.616;2023-04-03T09:05:40;4.63;;;1.80;;
56770;SDS011;42641;59.794;17.616;2023-04-03T09:08:24;6.47;;;2.50;;
56770;SDS011;42641;59.794;17.616;2023-04-03T09:10:53;6.80;;;1.80;;
56770;SDS011;42641;59.794;17.616;2023-04-03T09:13:33;4.07;;;1.90;;
56770;SDS011;42641;59.794;17.616;2023-04-03T09:16:06;7.03;;;1.80;;
56770;SDS011;42641;59.794;17.616;2023-04-03T09:19:02;4.37;;;2.10;;
56770;SDS011;42641;59.794;17.616;2023-04-03T09:21:40;6.30;;;1.87;;
56770;SDS011;42641;59.794;17.616;2023-04-03T09:24:09;6.33;;;1.90;;
56770;SDS011;42641;59.794;17.616;2023-04-03T09:26:46;6.40;;;2.10;;
56770;SDS011;42641;59.794;17.616;2023-04-03T09:29:18;8.17;;;1.83;;
56770;SDS011;42641;59.794;17.616;2023-04-03T09:31:52;5.60;;;1.83;;
56770;SDS011;42641;59.794;17.616;2023-04-03T09:34:23;4.80;;;1.90;;
56770;SDS011;42641;59.794;17.616;2023-04-03T09:36:51;4.17;;;1.47;;
56770;SDS011;42641;59.794;17.616;2023-04-03T09:39:21;9.07;;;2.00;;
56770;SDS011;42641;59.794;17.616;2023-04-03T09:42:32;4.90;;;1.83;;
56770;SDS011;42641;59.794;17.616;2023-04-03T09:44:55;3.17;;;1.53;;
56770;SDS011;42641;59.794;17.616;2023-04-03T09:47:30;4.97;;;1.63;;
56770;SDS011;42641;59.794;17.616;2023-04-03T09:52:48;5.03;;;1.73;;
56770;SDS011;42641;59.794;17.616;2023-04-03T09:55:18;6.60;;;1.70;;
56770;SDS011;42641;59.794;17.616;2023-04-03T09:57:53;3.50;;;1.70;;
56770;SDS011;42641;59.794;17.616;2023-04-03T10:00:23;4.00;;;1.80;;
56770;SDS011;42641;59.794;17.616;2023-04-03T10:02:56;2.80;;;1.47;;
56770;SDS011;42641;59.794;17.616;2023-04-03T10:05:37;4.90;;;1.37;;
56770;SDS011;42641;59.794;17.616;2023-04-03T10:10:37;4.03;;;1.70;;
56770;SDS011;42641;59.794;17.616;2023-04-03T10:15:42;5.20;;;1.50;;
56770;SDS011;42641;59.794;17.616;2023-04-03T10:18:19;2.60;;;1.47;;
56770;SDS011;42641;59.794;17.616;2023-04-03T10:20:53;3.53;;;1.57;;
56770;SDS011;42641;59.794;17.616;2023-04-03T10:26:16;4.20;;;1.73;;
56770;SDS011;42641;59.794;17.616;2023-04-03T10:31:44;3.10;;;1.47;;
56770;SDS011;42641;59.794;17.616;2023-04-03T10:34:21;4.70;;;1.80;;
56770;SDS011;42641;59.794;17.616;2023-04-03T10:42:27;3.97;;;2.07;;
56770;SDS011;42641;59.794;17.616;2023-04-03T10:48:02;2.07;;;1.40;;
56770;SDS011;42641;59.794;17.616;2023-04-03T10:50:53;4.63;;;1.30;;
56770;SDS011;42641;59.794;17.616;2023-04-03T10:56:12;1.90;;;1.33;;
56770;SDS011;42641;59.794;17.616;2023-04-03T11:01:34;2.80;;;1.47;;
56770;SDS011;42641;59.794;17.616;2023-04-03T11:04:04;2.97;;;1.30;;
56770;SDS011;42641;59.794;17.616;2023-04-03T11:06:35;2.10;;;1.30;;
56770;SDS011;42641;59.794;17.616;2023-04-03T11:12:15;2.77;;;1.10;;
56770;SDS011;42641;59.794;17.616;2023-04-03T11:14:53;2.67;;;1.63;;
56770;SDS011;42641;59.794;17.616;2023-04-03T11:20:36;3.47;;;1.20;;
56770;SDS011;42641;59.794;17.616;2023-04-03T11:23:31;1.97;;;1.27;;
56770;SDS011;42641;59.794;17.616;2023-04-03T11:25:55;3.40;;;1.60;;
56770;SDS011;42641;59.794;17.616;2023-04-03T11:28:30;3.67;;;1.50;;
56770;SDS011;42641;59.794;17.616;2023-04-03T11:31:12;2.30;;;1.10;;
56770;SDS011;42641;59.794;17.616;2023-04-03T11:36:39;3.33;;;1.10;;
56770;SDS011;42641;59.794;17.616;2023-04-03T11:39:19;3.63;;;1.40;;
56770;SDS011;42641;59.794;17.616;2023-04-03T11:41:55;3.53;;;2.17;;
56770;SDS011;42641;59.794;17.616;2023-04-03T11:44:39;4.63;;;2.00;;
56770;SDS011;42641;59.794;17.616;2023-04-03T11:47:06;1.50;;;1.17;;
56770;SDS011;42641;59.794;17.616;2023-04-03T11:49:50;4.10;;;1.17;;
56770;SDS011;42641;59.794;17.616;2023-04-03T11:52:59;2.23;;;1.07;;
56770;SDS011;42641;59.794;17.616;2023-04-03T12:05:49;2.10;;;1.03;;
56770;SDS011;42641;59.794;17.616;2023-04-03T12:16:06;3.83;;;1.00;;
56770;SDS011;42641;59.794;17.616;2023-04-03T12:24:26;2.93;;;0.97;;
56770;SDS011;42641;59.794;17.616;2023-04-03T12:29:28;3.23;;;1.20;;
56770;SDS011;42641;59.794;17.616;2023-04-03T12:32:06;2.37;;;1.30;;
56770;SDS011;42641;59.794;17.616;2023-04-03T12:45:50;2.33;;;0.90;;
56770;SDS011;42641;59.794;17.616;2023-04-03T12:51:30;1.70;;;0.80;;
56770;SDS011;42641;59.794;17.616;2023-04-03T12:54:12;4.32;;;1.23;;
56770;SDS011;42641;59.794;17.616;2023-04-03T12:56:39;4.35;;;1.10;;
56770;SDS011;42641;59.794;17.616;2023-04-03T12:59:13;3.03;;;0.88;;
56770;SDS011;42641;59.794;17.616;2023-04-03T13:04:25;2.17;;;1.10;;
56770;SDS011;42641;59.794;17.616;2023-04-03T13:06:53;2.13;;;0.93;;
56770;SDS011;42641;59.794;17.616;2023-04-03T13:12:15;2.25;;;0.93;;
56770;SDS011;42641;59.794;17.616;2023-04-03T13:14:50;2.83;;;0.90;;
56770;SDS011;42641;59.794;17.616;2023-04-03T13:17:22;2.83;;;1.10;;
56770;SDS011;42641;59.794;17.616;2023-04-03T13:19:48;3.13;;;1.20;;
56770;SDS011;42641;59.794;17.616;2023-04-03T13:24:56;2.28;;;0.90;;
56770;SDS011;42641;59.794;17.616;2023-04-03T13:27:26;4.78;;;1.23;;
56770;SDS011;42641;59.794;17.616;2023-04-03T13:29:57;1.15;;;0.90;;
56770;SDS011;42641;59.794;17.616;2023-04-03T13:32:26;1.92;;;0.80;;
56770;SDS011;42641;59.794;17.616;2023-04-03T13:34:55;3.30;;;1.10;;
56770;SDS011;42641;59.794;17.616;2023-04-03T13:37:26;2.10;;;1.02;;
56770;SDS011;42641;59.794;17.616;2023-04-03T13:42:31;1.73;;;0.80;;
56770;SDS011;42641;59.794;17.616;2023-04-03T13:51:03;4.67;;;1.23;;
56770;SDS011;42641;59.794;17.616;2023-04-03T13:53:44;3.53;;;1.00;;
56770;SDS011;42641;59.794;17.616;2023-04-03T13:59:05;1.98;;;1.08;;
56770;SDS011;42641;59.794;17.616;2023-04-03T14:04:12;5.00;;;1.13;;
56770;SDS011;42641;59.794;17.616;2023-04-03T14:06:41;3.92;;;0.95;;
56770;SDS011;42641;59.794;17.616;2023-04-03T14:09:07;2.05;;;0.90;;
56770;SDS011;42641;59.794;17.616;2023-04-03T14:11:34;1.45;;;0.93;;
56770;SDS011;42641;59.794;17.616;2023-04-03T14:14:02;1.50;;;1.13;;
56770;SDS011;42641;59.794;17.616;2023-04-03T14:16:46;2.20;;;1.10;;
56770;SDS011;42641;59.794;17.616;2023-04-03T14:19:21;6.53;;;1.43;;
56770;SDS011;42641;59.794;17.616;2023-04-03T14:21:50;2.75;;;1.00;;
56770;SDS011;42641;59.794;17.616;2023-04-03T14:24:20;2.65;;;1.42;;
56770;SDS011;42641;59.794;17.616;2023-04-03T14:26:48;4.30;;;1.02;;
56770;SDS011;42641;59.794;17.616;2023-04-03T14:29:16;4.10;;;1.15;;
56770;SDS011;42641;59.794;17.616;2023-04-03T14:31:44;3.30;;;1.30;;
56770;SDS011;42641;59.794;17.616;2023-04-03T14:34:12;2.58;;;1.20;;
56770;SDS011;42641;59.794;17.616;2023-04-03T14:36:40;1.73;;;0.82;;
56770;SDS011;42641;59.794;17.616;2023-04-03T14:39:10;4.40;;;1.00;;
56770;SDS011;42641;59.794;17.616;2023-04-03T14:41:43;2.67;;;1.00;;
56770;SDS011;42641;59.794;17.616;2023-04-03T14:44:11;3.33;;;0.80;;
56770;SDS011;42641;59.794;17.616;2023-04-03T14:46:39;1.57;;;0.90;;
56770;SDS011;42641;59.794;17.616;2023-04-03T14:49:18;3.80;;;1.10;;
56770;SDS011;42641;59.794;17.616;2023-04-03T14:51:47;2.63;;;1.20;;
56770;SDS011;42641;59.794;17.616;2023-04-03T14:54:14;5.33;;;0.90;;
56770;SDS011;42641;59.794;17.616;2023-04-03T14:56:43;1.63;;;1.07;;
56770;SDS011;42641;59.794;17.616;2023-04-03T14:59:13;2.90;;;1.00;;
56770;SDS011;42641;59.794;17.616;2023-04-03T15:01:41;2.70;;;0.87;;
56770;SDS011;42641;59.794;17.616;2023-04-03T15:04:12;2.23;;;0.90;;
56770;SDS011;42641;59.794;17.616;2023-04-03T15:06:40;1.77;;;1.00;;
56770;SDS011;42641;59.794;17.616;2023-04-03T15:09:20;2.27;;;1.00;;
56770;SDS011;42641;59.794;17.616;2023-04-03T15:11:52;1.93;;;1.23;;
56770;SDS011;42641;59.794;17.616;2023-04-03T15:14:20;2.20;;;1.10;;
56770;SDS011;42641;59.794;17.616;2023-04-03T15:16:47;3.60;;;1.00;;
56770;SDS011;42641;59.794;17.616;2023-04-03T15:19:14;2.30;;;0.93;;
56770;SDS011;42641;59.794;17.616;2023-04-03T15:24:37;4.67;;;1.20;;
56770;SDS011;42641;59.794;17.616;2023-04-03T15:27:03;2.10;;;0.90;;
56770;SDS011;42641;59.794;17.616;2023-04-03T15:29:30;3.00;;;1.20;;
56770;SDS011;42641;59.794;17.616;2023-04-03T15:31:56;2.07;;;1.43;;
56770;SDS011;42641;59.794;17.616;2023-04-03T15:34:23;2.20;;;1.27;;
56770;SDS011;42641;59.794;17.616;2023-04-03T15:36:50;3.13;;;0.97;;
56770;SDS011;42641;59.794;17.616;2023-04-03T15:39:18;2.20;;;1.10;;
56770;SDS011;42641;59.794;17.616;2023-04-03T15:41:44;3.53;;;1.20;;
56770;SDS011;42641;59.794;17.616;2023-04-03T15:44:11;1.27;;;1.00;;
56770;SDS011;42641;59.794;17.616;2023-04-03T15:46:38;3.37;;;0.77;;
56770;SDS011;42641;59.794;17.616;2023-04-03T15:49:05;1.40;;;0.90;;
56770;SDS011;42641;59.794;17.616;2023-04-03T15:51:32;4.50;;;1.37;;
56770;SDS011;42641;59.794;17.616;2023-04-03T15:53:58;3.90;;;1.13;;
56770;SDS011;42641;59.794;17.616;2023-04-03T15:56:25;1.33;;;1.10;;
56770;SDS011;42641;59.794;17.616;2023-04-03T15:58:51;3.97;;;1.40;;
56770;SDS011;42641;59.794;17.616;2023-04-03T16:01:17;2.70;;;0.90;;
56770;SDS011;42641;59.794;17.616;2023-04-03T16:03:44;4.67;;;1.27;;
56770;SDS011;42641;59.794;17.616;2023-04-03T16:06:12;0.73;;;0.73;;
56770;SDS011;42641;59.794;17.616;2023-04-03T16:08:39;3.13;;;1.17;;
56770;SDS011;42641;59.794;17.616;2023-04-03T16:11:05;2.83;;;1.20;;
56770;SDS011;42641;59.794;17.616;2023-04-03T16:13:32;2.80;;;0.90;;
56770;SDS011;42641;59.794;17.616;2023-04-03T16:15:59;1.87;;;0.70;;
56770;SDS011;42641;59.794;17.616;2023-04-03T16:18:27;2.07;;;0.90;;
56770;SDS011;42641;59.794;17.616;2023-04-03T16:20:54;1.87;;;1.03;;
56770;SDS011;42641;59.794;17.616;2023-04-03T16:23:21;3.07;;;1.10;;
56770;SDS011;42641;59.794;17.616;2023-04-03T16:25:48;3.47;;;1.00;;
56770;SDS011;42641;59.794;17.616;2023-04-03T16:28:15;1.43;;;0.90;;
56770;SDS011;42641;59.794;17.616;2023-04-03T16:30:46;4.83;;;0.80;;
56770;SDS011;42641;59.794;17.616;2023-04-03T16:33:14;3.43;;;1.23;;
56770;SDS011;42641;59.794;17.616;2023-04-03T16:35:41;3.10;;;0.97;;
56770;SDS011;42641;59.794;17.616;2023-04-03T16:38:08;2.43;;;0.70;;
56770;SDS011;42641;59.794;17.616;2023-04-03T16:40:35;2.10;;;0.77;;
56770;SDS011;42641;59.794;17.616;2023-04-03T16:43:01;4.60;;;1.20;;
56770;SDS011;42641;59.794;17.616;2023-04-03T16:45:28;3.07;;;1.10;;
56770;SDS011;42641;59.794;17.616;2023-04-03T16:47:54;3.50;;;0.90;;